sensor_id;sensor_type;location;lat;lon;timestamp;pressure;altitude;pressure_sealevel;temperature;humidity
10921;BME280;5513;50.580;8.818;2023-10-13T00:00:31;99218.19;;;16.27;100.00
10921;BME280;5513;50.580;8.818;2023-10-13T00:03:21;99207.28;;;16.19;100.00
10921;BME280;5513;50.580;8.818;2023-10-13T00:06:08;99206.59;;;16.17;100.00
10921;BME280;5513;50.580;8.818;2023-10-13T00:08:56;99211.78;;;16.19;100.00
10921;BME280;5513;50.580;8.818;2023-10-13T00:11:43;99218.44;;;16.24;100.00
10921;BME280;5513;50.580;8.818;2023-10-13T00:14:33;99225.63;;;16.24;100.00
10921;BME280;5513;50.580;8.818;2023-10-13T00:17:20;99223.00;;;16.34;100.00
10921;BME280;5513;50.580;8.818;2023-10-13T00:20:11;99212.50;;;16.21;100.00
10921;BME280;5513;50.580;8.818;2023-10-13T00:23:19;99204.38;;;16.22;100.00
10921;BME280;5513;50.580;8.818;2023-10-13T00:26:07;99206.44;;;16.19;100.00
10921;BME280;5513;50.580;8.818;2023-10-13T00:28:55;99201.38;;;16.16;100.00
10921;BME280;5513;50.580;8.818;2023-10-13T00:31:55;99198.13;;;16.12;100.00
10921;BME280;5513;50.580;8.818;2023-10-13T00:34:42;99196.03;;;16.16;100.00
10921;BME280;5513;50.580;8.818;2023-10-13T00:37:29;99207.34;;;16.29;100.00
10921;BME280;5513;50.580;8.818;2023-10-13T00:40:26;99211.28;;;16.25;100.00
10921;BME280;5513;50.580;8.818;2023-10-13T00:43:29;99209.66;;;16.13;100.00
10921;BME280;5513;50.580;8.818;2023-10-13T00:46:20;99218.03;;;16.29;100.00
10921;BME280;5513;50.580;8.818;2023-10-13T00:49:09;99221.91;;;16.15;100.00
10921;BME280;5513;50.580;8.818;2023-10-13T00:51:56;99211.75;;;16.09;100.00
10921;BME280;5513;50.580;8.818;2023-10-13T00:54:44;99219.03;;;16.07;100.00
10921;BME280;5513;50.580;8.818;2023-10-13T00:57:32;99219.69;;;16.20;100.00
10921;BME280;5513;50.580;8.818;2023-10-13T01:00:19;99214.88;;;16.14;100.00
10921;BME280;5513;50.580;8.818;2023-10-13T01:03:10;99217.50;;;16.05;100.00
10921;BME280;5513;50.580;8.818;2023-10-13T01:05:59;99217.09;;;16.09;100.00
10921;BME280;5513;50.580;8.818;2023-10-13T01:08:49;99224.59;;;16.15;100.00
10921;BME280;5513;50.580;8.818;2023-10-13T01:11:37;99220.16;;;16.05;100.00
10921;BME280;5513;50.580;8.818;2023-10-13T01:14:24;99218.97;;;16.18;100.00
10921;BME280;5513;50.580;8.818;2023-10-13T01:17:14;99208.97;;;16.20;100.00
10921;BME280;5513;50.580;8.818;2023-10-13T01:20:01;99200.06;;;16.10;100.00
10921;BME280;5513;50.580;8.818;2023-10-13T01:22:51;99196.31;;;16.13;100.00
10921;BME280;5513;50.580;8.818;2023-10-13T01:25:42;99192.09;;;16.20;100.00
10921;BME280;5513;50.580;8.818;2023-10-13T01:28:28;99189.28;;;16.12;100.00
10921;BME280;5513;50.580;8.818;2023-10-13T01:31:15;99185.72;;;16.11;100.00
10921;BME280;5513;50.580;8.818;2023-10-13T01:34:10;99190.91;;;16.03;100.00
10921;BME280;5513;50.580;8.818;2023-10-13T01:36:58;99194.66;;;16.00;100.00
10921;BME280;5513;50.580;8.818;2023-10-13T01:39:50;99182.84;;;15.93;100.00
10921;BME280;5513;50.580;8.818;2023-10-13T01:42:39;99191.16;;;16.00;100.00
10921;BME280;5513;50.580;8.818;2023-10-13T01:45:25;99181.63;;;16.07;100.00
10921;BME280;5513;50.580;8.818;2023-10-13T01:48:15;99179.63;;;15.99;100.00
10921;BME280;5513;50.580;8.818;2023-10-13T01:51:02;99174.59;;;16.06;100.00
10921;BME280;5513;50.580;8.818;2023-10-13T01:53:51;99174.13;;;16.01;100.00
10921;BME280;5513;50.580;8.818;2023-10-13T01:56:42;99186.84;;;16.09;100.00
10921;BME280;5513;50.580;8.818;2023-10-13T01:59:30;99180.94;;;16.05;100.00
10921;BME280;5513;50.580;8.818;2023-10-13T02:02:16;99176.81;;;16.01;100.00
10921;BME280;5513;50.580;8.818;2023-10-13T02:05:12;99174.13;;;16.01;100.00
10921;BME280;5513;50.580;8.818;2023-10-13T02:08:01;99162.75;;;15.99;100.00
10921;BME280;5513;50.580;8.818;2023-10-13T02:10:48;99174.47;;;16.08;100.00
10921;BME280;5513;50.580;8.818;2023-10-13T02:13:35;99174.94;;;16.13;100.00
10921;BME280;5513;50.580;8.818;2023-10-13T02:16:28;99184.88;;;16.11;100.00
10921;BME280;5513;50.580;8.818;2023-10-13T02:19:17;99181.78;;;16.06;100.00
10921;BME280;5513;50.580;8.818;2023-10-13T02:22:05;99181.50;;;16.09;100.00
10921;BME280;5513;50.580;8.818;2023-10-13T02:24:55;99173.28;;;16.00;100.00
10921;BME280;5513;50.580;8.818;2023-10-13T02:27:47;99174.28;;;15.99;100.00
10921;BME280;5513;50.580;8.818;2023-10-13T02:30:44;99168.94;;;15.99;100.00
10921;BME280;5513;50.580;8.818;2023-10-13T02:33:32;99166.25;;;15.99;100.00
10921;BME280;5513;50.580;8.818;2023-10-13T02:36:19;99174.34;;;15.88;100.00
10921;BME280;5513;50.580;8.818;2023-10-13T02:39:09;99174.34;;;15.88;100.00
10921;BME280;5513;50.580;8.818;2023-10-13T02:41:55;99168.88;;;15.90;100.00
10921;BME280;5513;50.580;8.818;2023-10-13T02:44:41;99167.25;;;15.98;100.00
10921;BME280;5513;50.580;8.818;2023-10-13T02:47:32;99164.19;;;16.03;100.00
10921;BME280;5513;50.580;8.818;2023-10-13T02:50:20;99158.25;;;15.99;100.00
10921;BME280;5513;50.580;8.818;2023-10-13T02:53:10;99160.34;;;15.96;100.00
10921;BME280;5513;50.580;8.818;2023-10-13T02:55:58;99157.81;;;15.94;100.00
10921;BME280;5513;50.580;8.818;2023-10-13T02:58:52;99146.72;;;15.99;100.00
10921;BME280;5513;50.580;8.818;2023-10-13T03:01:42;99151.03;;;15.90;100.00
10921;BME280;5513;50.580;8.818;2023-10-13T03:04:28;99154.34;;;16.03;100.00
10921;BME280;5513;50.580;8.818;2023-10-13T03:07:18;99147.69;;;15.98;100.00
10921;BME280;5513;50.580;8.818;2023-10-13T03:10:09;99144.88;;;15.99;100.00
10921;BME280;5513;50.580;8.818;2023-10-13T03:12:56;99140.28;;;16.11;100.00
10921;BME280;5513;50.580;8.818;2023-10-13T03:15:43;99133.25;;;16.10;100.00
10921;BME280;5513;50.580;8.818;2023-10-13T03:18:33;99132.41;;;16.10;100.00
10921;BME280;5513;50.580;8.818;2023-10-13T03:21:22;99140.25;;;16.01;100.00
10921;BME280;5513;50.580;8.818;2023-10-13T03:24:18;99138.50;;;16.12;100.00
10921;BME280;5513;50.580;8.818;2023-10-13T03:27:09;99137.19;;;16.06;100.00
10921;BME280;5513;50.580;8.818;2023-10-13T03:29:57;99135.09;;;16.10;100.00
10921;BME280;5513;50.580;8.818;2023-10-13T03:32:47;99128.69;;;16.22;100.00
10921;BME280;5513;50.580;8.818;2023-10-13T03:35:34;99122.56;;;16.10;100.00
10921;BME280;5513;50.580;8.818;2023-10-13T03:38:25;99121.53;;;16.01;100.00
10921;BME280;5513;50.580;8.818;2023-10-13T03:41:14;99115.78;;;15.96;100.00
10921;BME280;5513;50.580;8.818;2023-10-13T03:44:06;99118.44;;;15.96;100.00
10921;BME280;5513;50.580;8.818;2023-10-13T03:46:59;99121.50;;;15.92;100.00
10921;BME280;5513;50.580;8.818;2023-10-13T03:50:05;99120.66;;;15.91;100.00
10921;BME280;5513;50.580;8.818;2023-10-13T03:53:01;99141.66;;;15.96;100.00
10921;BME280;5513;50.580;8.818;2023-10-13T03:55:51;99143.06;;;16.00;100.00
10921;BME280;5513;50.580;8.818;2023-10-13T03:58:56;99137.94;;;15.87;100.00
10921;BME280;5513;50.580;8.818;2023-10-13T04:01:44;99133.63;;;15.96;100.00
10921;BME280;5513;50.580;8.818;2023-10-13T04:04:32;99130.97;;;15.96;100.00
10921;BME280;5513;50.580;8.818;2023-10-13T04:07:34;99129.84;;;15.98;100.00
10921;BME280;5513;50.580;8.818;2023-10-13T04:10:46;99130.63;;;15.89;100.00
10921;BME280;5513;50.580;8.818;2023-10-13T04:13:50;99131.66;;;15.98;100.00
10921;BME280;5513;50.580;8.818;2023-10-13T04:16:56;99141.13;;;16.02;100.00
10921;BME280;5513;50.580;8.818;2023-10-13T04:19:43;99146.28;;;15.94;100.00
10921;BME280;5513;50.580;8.818;2023-10-13T04:22:44;99146.16;;;15.95;100.00
10921;BME280;5513;50.580;8.818;2023-10-13T04:25:48;99146.34;;;16.03;100.00
10921;BME280;5513;50.580;8.818;2023-10-13T04:29:06;99147.59;;;16.09;100.00
10921;BME280;5513;50.580;8.818;2023-10-13T04:31:57;99130.50;;;16.12;100.00
10921;BME280;5513;50.580;8.818;2023-10-13T04:34:45;99135.22;;;16.08;100.00
10921;BME280;5513;50.580;8.818;2023-10-13T04:37:31;99121.88;;;16.08;100.00
10921;BME280;5513;50.580;8.818;2023-10-13T04:40:33;99127.88;;;16.00;100.00
10921;BME280;5513;50.580;8.818;2023-10-13T04:43:21;99134.53;;;16.06;100.00
10921;BME280;5513;50.580;8.818;2023-10-13T04:46:18;99134.38;;;16.08;100.00
10921;BME280;5513;50.580;8.818;2023-10-13T04:49:22;99124.25;;;16.11;100.00
10921;BME280;5513;50.580;8.818;2023-10-13T04:52:20;99121.88;;;16.08;100.00
10921;BME280;5513;50.580;8.818;2023-10-13T04:55:24;99119.91;;;16.10;100.00
10921;BME280;5513;50.580;8.818;2023-10-13T04:58:33;99122.28;;;16.03;100.00
10921;BME280;5513;50.580;8.818;2023-10-13T05:01:46;99119.06;;;16.10;100.00
10921;BME280;5513;50.580;8.818;2023-10-13T05:04:51;99112.88;;;16.09;100.00
10921;BME280;5513;50.580;8.818;2023-10-13T05:08:07;99094.47;;;16.16;100.00
10921;BME280;5513;50.580;8.818;2023-10-13T05:11:11;99091.50;;;16.09;100.00
10921;BME280;5513;50.580;8.818;2023-10-13T05:14:15;99094.72;;;16.03;100.00
10921;BME280;5513;50.580;8.818;2023-10-13T05:17:19;99104.72;;;16.11;100.00
10921;BME280;5513;50.580;8.818;2023-10-13T05:20:25;99092.63;;;16.07;100.00
10921;BME280;5513;50.580;8.818;2023-10-13T05:23:30;99087.09;;;15.98;100.00
10921;BME280;5513;50.580;8.818;2023-10-13T05:26:34;99086.84;;;16.11;100.00
10921;BME280;5513;50.580;8.818;2023-10-13T05:29:39;99082.38;;;16.12;100.00
10921;BME280;5513;50.580;8.818;2023-10-13T05:32:43;99081.09;;;16.06;100.00
10921;BME280;5513;50.580;8.818;2023-10-13T05:35:49;99078.97;;;16.10;100.00
10921;BME280;5513;50.580;8.818;2023-10-13T05:38:53;99080.63;;;16.01;100.00
10921;BME280;5513;50.580;8.818;2023-10-13T05:41:57;99075.34;;;16.20;100.00
10921;BME280;5513;50.580;8.818;2023-10-13T05:45:01;99078.56;;;16.54;100.00
10921;BME280;5513;50.580;8.818;2023-10-13T05:48:11;99078.53;;;16.45;100.00
10921;BME280;5513;50.580;8.818;2023-10-13T05:51:21;99078.06;;;16.30;100.00
10921;BME280;5513;50.580;8.818;2023-10-13T05:54:27;99081.31;;;16.34;100.00
10921;BME280;5513;50.580;8.818;2023-10-13T05:57:32;99072.56;;;16.22;100.00
10921;BME280;5513;50.580;8.818;2023-10-13T06:00:40;99066.97;;;16.35;100.00
10921;BME280;5513;50.580;8.818;2023-10-13T06:03:55;99063.16;;;16.37;100.00
10921;BME280;5513;50.580;8.818;2023-10-13T06:07:01;99065.53;;;16.30;100.00
10921;BME280;5513;50.580;8.818;2023-10-13T06:10:06;99065.00;;;16.37;100.00
10921;BME280;5513;50.580;8.818;2023-10-13T06:13:10;99067.28;;;16.41;100.00
10921;BME280;5513;50.580;8.818;2023-10-13T06:16:15;99051.63;;;16.37;100.00
10921;BME280;5513;50.580;8.818;2023-10-13T06:19:19;99053.47;;;16.36;100.00
10921;BME280;5513;50.580;8.818;2023-10-13T06:22:25;99057.13;;;16.35;100.00
10921;BME280;5513;50.580;8.818;2023-10-13T06:25:29;99051.22;;;16.31;100.00
10921;BME280;5513;50.580;8.818;2023-10-13T06:28:33;99051.25;;;16.41;100.00
10921;BME280;5513;50.580;8.818;2023-10-13T06:31:31;99054.75;;;16.42;100.00
10921;BME280;5513;50.580;8.818;2023-10-13T06:34:21;99048.00;;;16.47;100.00
10921;BME280;5513;50.580;8.818;2023-10-13T06:37:25;99048.00;;;16.57;100.00
10921;BME280;5513;50.580;8.818;2023-10-13T06:40:15;99033.50;;;16.59;100.00
10921;BME280;5513;50.580;8.818;2023-10-13T06:43:19;99043.22;;;16.51;100.00
10921;BME280;5513;50.580;8.818;2023-10-13T06:46:12;99033.63;;;16.48;100.00
10921;BME280;5513;50.580;8.818;2023-10-13T06:49:01;99022.69;;;16.61;100.00
10921;BME280;5513;50.580;8.818;2023-10-13T06:51:48;99027.06;;;16.62;100.00
10921;BME280;5513;50.580;8.818;2023-10-13T06:54:38;99020.88;;;16.62;100.00
10921;BME280;5513;50.580;8.818;2023-10-13T06:57:26;99017.59;;;16.58;100.00
10921;BME280;5513;50.580;8.818;2023-10-13T07:00:17;99021.41;;;16.55;100.00
10921;BME280;5513;50.580;8.818;2023-10-13T07:03:14;99005.38;;;16.55;100.00
10921;BME280;5513;50.580;8.818;2023-10-13T07:06:05;99005.91;;;16.59;100.00
10921;BME280;5513;50.580;8.818;2023-10-13T07:08:56;98998.34;;;16.64;100.00
10921;BME280;5513;50.580;8.818;2023-10-13T07:11:45;98994.56;;;16.76;100.00
10921;BME280;5513;50.580;8.818;2023-10-13T07:14:38;98990.63;;;16.80;100.00
10921;BME280;5513;50.580;8.818;2023-10-13T07:17:25;98989.91;;;16.88;100.00
10921;BME280;5513;50.580;8.818;2023-10-13T07:20:13;98986.97;;;16.81;100.00
10921;BME280;5513;50.580;8.818;2023-10-13T07:23:09;98984.84;;;16.95;100.00
10921;BME280;5513;50.580;8.818;2023-10-13T07:26:02;98983.13;;;17.03;100.00
10921;BME280;5513;50.580;8.818;2023-10-13T07:28:50;98978.34;;;16.97;100.00
10921;BME280;5513;50.580;8.818;2023-10-13T07:31:37;98970.28;;;17.07;100.00
10921;BME280;5513;50.580;8.818;2023-10-13T07:34:26;98965.78;;;17.07;100.00
10921;BME280;5513;50.580;8.818;2023-10-13T07:37:17;98959.03;;;17.03;100.00
10921;BME280;5513;50.580;8.818;2023-10-13T07:40:06;98962.16;;;16.99;100.00
10921;BME280;5513;50.580;8.818;2023-10-13T07:43:07;98951.03;;;17.03;100.00
10921;BME280;5513;50.580;8.818;2023-10-13T07:45:58;98952.88;;;16.93;100.00
10921;BME280;5513;50.580;8.818;2023-10-13T07:48:51;98942.44;;;17.00;100.00
10921;BME280;5513;50.580;8.818;2023-10-13T07:51:39;98949.88;;;17.06;100.00
10921;BME280;5513;50.580;8.818;2023-10-13T07:54:30;98934.41;;;17.00;100.00
10921;BME280;5513;50.580;8.818;2023-10-13T07:57:16;98928.63;;;16.95;100.00
10921;BME280;5513;50.580;8.818;2023-10-13T08:00:05;98924.09;;;17.05;100.00
10921;BME280;5513;50.580;8.818;2023-10-13T08:03:00;98923.13;;;17.06;100.00
10921;BME280;5513;50.580;8.818;2023-10-13T08:06:03;98911.56;;;17.05;100.00
10921;BME280;5513;50.580;8.818;2023-10-13T08:08:52;98903.28;;;17.08;100.00
10921;BME280;5513;50.580;8.818;2023-10-13T08:11:52;98910.13;;;17.21;100.00
10921;BME280;5513;50.580;8.818;2023-10-13T08:14:40;98894.22;;;17.19;100.00
10921;BME280;5513;50.580;8.818;2023-10-13T08:17:29;98890.34;;;17.31;100.00
10921;BME280;5513;50.580;8.818;2023-10-13T08:20:18;98883.44;;;17.38;100.00
10921;BME280;5513;50.580;8.818;2023-10-13T08:23:07;98870.16;;;17.37;100.00
10921;BME280;5513;50.580;8.818;2023-10-13T08:26:20;98870.16;;;17.37;100.00
10921;BME280;5513;50.580;8.818;2023-10-13T08:29:37;98878.47;;;17.43;100.00
10921;BME280;5513;50.580;8.818;2023-10-13T08:32:55;98863.44;;;17.60;100.00
10921;BME280;5513;50.580;8.818;2023-10-13T08:35:44;98855.09;;;17.63;100.00
10921;BME280;5513;50.580;8.818;2023-10-13T08:38:51;98854.31;;;17.81;100.00
10921;BME280;5513;50.580;8.818;2023-10-13T08:41:41;98853.47;;;17.80;100.00
10921;BME280;5513;50.580;8.818;2023-10-13T08:44:45;98840.00;;;17.90;100.00
10921;BME280;5513;50.580;8.818;2023-10-13T08:47:38;98819.84;;;18.03;100.00
10921;BME280;5513;50.580;8.818;2023-10-13T08:50:27;98826.97;;;18.13;100.00
10921;BME280;5513;50.580;8.818;2023-10-13T08:53:34;98798.47;;;18.12;100.00
10921;BME280;5513;50.580;8.818;2023-10-13T08:56:30;98792.78;;;18.33;100.00
10921;BME280;5513;50.580;8.818;2023-10-13T08:59:19;98778.69;;;18.30;100.00
10921;BME280;5513;50.580;8.818;2023-10-13T09:02:14;98776.19;;;18.55;100.00
10921;BME280;5513;50.580;8.818;2023-10-13T09:05:05;98763.63;;;18.55;100.00
10921;BME280;5513;50.580;8.818;2023-10-13T09:08:12;98754.06;;;18.53;100.00
10921;BME280;5513;50.580;8.818;2023-10-13T09:11:04;98745.66;;;18.74;100.00
10921;BME280;5513;50.580;8.818;2023-10-13T09:13:57;98742.50;;;18.86;100.00
10921;BME280;5513;50.580;8.818;2023-10-13T09:16:49;98741.59;;;19.04;100.00
10921;BME280;5513;50.580;8.818;2023-10-13T09:19:53;98741.59;;;19.04;100.00
10921;BME280;5513;50.580;8.818;2023-10-13T09:22:42;98736.06;;;18.71;100.00
10921;BME280;5513;50.580;8.818;2023-10-13T09:25:29;98728.38;;;18.76;100.00
10921;BME280;5513;50.580;8.818;2023-10-13T09:28:20;98725.06;;;19.33;100.00
10921;BME280;5513;50.580;8.818;2023-10-13T09:31:07;98726.03;;;19.24;100.00
10921;BME280;5513;50.580;8.818;2023-10-13T09:33:55;98710.47;;;19.43;100.00
10921;BME280;5513;50.580;8.818;2023-10-13T09:36:44;98709.66;;;19.51;100.00
10921;BME280;5513;50.580;8.818;2023-10-13T09:39:33;98699.38;;;19.47;100.00
10921;BME280;5513;50.580;8.818;2023-10-13T09:42:33;98697.44;;;19.73;100.00
10921;BME280;5513;50.580;8.818;2023-10-13T09:45:24;98695.06;;;19.86;100.00
10921;BME280;5513;50.580;8.818;2023-10-13T09:48:14;98673.22;;;19.97;100.00
10921;BME280;5513;50.580;8.818;2023-10-13T09:51:03;98669.13;;;19.97;100.00
10921;BME280;5513;50.580;8.818;2023-10-13T09:53:58;98683.06;;;20.38;100.00
10921;BME280;5513;50.580;8.818;2023-10-13T09:57:13;98673.78;;;20.96;100.00
10921;BME280;5513;50.580;8.818;2023-10-13T10:00:09;98649.03;;;21.54;100.00
10921;BME280;5513;50.580;8.818;2023-10-13T10:03:16;98647.66;;;21.04;100.00
10921;BME280;5513;50.580;8.818;2023-10-13T10:06:26;98653.53;;;20.77;100.00
10921;BME280;5513;50.580;8.818;2023-10-13T10:09:13;98656.16;;;20.46;100.00
10921;BME280;5513;50.580;8.818;2023-10-13T10:12:23;98664.63;;;20.10;100.00
10921;BME280;5513;50.580;8.818;2023-10-13T10:15:26;98674.75;;;20.00;100.00
10921;BME280;5513;50.580;8.818;2023-10-13T10:18:22;98670.69;;;20.04;100.00
10921;BME280;5513;50.580;8.818;2023-10-13T10:21:11;98668.69;;;19.98;100.00
10921;BME280;5513;50.580;8.818;2023-10-13T10:24:00;98660.75;;;20.21;100.00
10921;BME280;5513;50.580;8.818;2023-10-13T10:26:59;98650.75;;;20.54;100.00
10921;BME280;5513;50.580;8.818;2023-10-13T10:29:53;98640.47;;;20.66;100.00
10921;BME280;5513;50.580;8.818;2023-10-13T10:32:40;98627.75;;;20.82;100.00
10921;BME280;5513;50.580;8.818;2023-10-13T10:35:31;98646.91;;;20.40;100.00
10921;BME280;5513;50.580;8.818;2023-10-13T10:38:19;98638.84;;;20.40;100.00
10921;BME280;5513;50.580;8.818;2023-10-13T10:41:25;98642.56;;;20.47;100.00
10921;BME280;5513;50.580;8.818;2023-10-13T10:44:15;98629.25;;;20.85;100.00
10921;BME280;5513;50.580;8.818;2023-10-13T10:47:10;98618.81;;;20.82;100.00
10921;BME280;5513;50.580;8.818;2023-10-13T10:49:57;98618.13;;;20.88;100.00
10921;BME280;5513;50.580;8.818;2023-10-13T10:52:47;98614.44;;;20.50;100.00
10921;BME280;5513;50.580;8.818;2023-10-13T10:55:36;98622.19;;;20.45;100.00
10921;BME280;5513;50.580;8.818;2023-10-13T10:58:23;98615.19;;;20.27;100.00
10921;BME280;5513;50.580;8.818;2023-10-13T11:01:15;98589.41;;;20.33;100.00
10921;BME280;5513;50.580;8.818;2023-10-13T11:04:07;98593.59;;;20.36;100.00
10921;BME280;5513;50.580;8.818;2023-10-13T11:07:04;98594.28;;;20.46;100.00
10921;BME280;5513;50.580;8.818;2023-10-13T11:09:53;98579.00;;;20.38;100.00
10921;BME280;5513;50.580;8.818;2023-10-13T11:12:55;98589.97;;;20.28;100.00
10921;BME280;5513;50.580;8.818;2023-10-13T11:15:57;98593.50;;;20.21;100.00
10921;BME280;5513;50.580;8.818;2023-10-13T11:18:43;98592.97;;;20.25;100.00
10921;BME280;5513;50.580;8.818;2023-10-13T11:21:33;98580.66;;;20.00;100.00
10921;BME280;5513;50.580;8.818;2023-10-13T11:24:22;98580.81;;;19.98;100.00
10921;BME280;5513;50.580;8.818;2023-10-13T11:27:15;98579.81;;;19.91;100.00
10921;BME280;5513;50.580;8.818;2023-10-13T11:30:23;98573.09;;;19.87;100.00
10921;BME280;5513;50.580;8.818;2023-10-13T11:33:16;98565.72;;;19.89;100.00
10921;BME280;5513;50.580;8.818;2023-10-13T11:36:08;98567.91;;;19.78;100.00
10921;BME280;5513;50.580;8.818;2023-10-13T11:39:02;98566.75;;;19.80;100.00
10921;BME280;5513;50.580;8.818;2023-10-13T11:41:53;98569.91;;;19.84;100.00
10921;BME280;5513;50.580;8.818;2023-10-13T11:44:42;98562.50;;;19.86;100.00
10921;BME280;5513;50.580;8.818;2023-10-13T11:47:29;98554.13;;;19.89;100.00
10921;BME280;5513;50.580;8.818;2023-10-13T11:50:34;98546.84;;;19.97;100.00
10921;BME280;5513;50.580;8.818;2023-10-13T11:53:21;98555.69;;;20.22;100.00
10921;BME280;5513;50.580;8.818;2023-10-13T11:56:08;98538.22;;;20.57;100.00
10921;BME280;5513;50.580;8.818;2023-10-13T11:58:55;98527.63;;;20.87;100.00
10921;BME280;5513;50.580;8.818;2023-10-13T12:01:49;98531.66;;;20.83;100.00
10921;BME280;5513;50.580;8.818;2023-10-13T12:04:54;98520.56;;;21.47;100.00
10921;BME280;5513;50.580;8.818;2023-10-13T12:07:43;98520.13;;;21.58;100.00
10921;BME280;5513;50.580;8.818;2023-10-13T12:10:34;98512.72;;;21.75;100.00
10921;BME280;5513;50.580;8.818;2023-10-13T12:13:34;98506.75;;;21.94;100.00
10921;BME280;5513;50.580;8.818;2023-10-13T12:16:21;98504.25;;;21.92;100.00
10921;BME280;5513;50.580;8.818;2023-10-13T12:19:09;98494.84;;;21.88;100.00
10921;BME280;5513;50.580;8.818;2023-10-13T12:21:57;98487.13;;;22.00;100.00
10921;BME280;5513;50.580;8.818;2023-10-13T12:24:50;98493.72;;;21.68;100.00
10921;BME280;5513;50.580;8.818;2023-10-13T12:27:39;98499.03;;;21.76;100.00
10921;BME280;5513;50.580;8.818;2023-10-13T12:30:34;98491.97;;;21.75;100.00
10921;BME280;5513;50.580;8.818;2023-10-13T12:33:34;98493.75;;;21.83;100.00
10921;BME280;5513;50.580;8.818;2023-10-13T12:36:27;98479.31;;;21.90;100.00
10921;BME280;5513;50.580;8.818;2023-10-13T12:39:26;98486.31;;;21.85;100.00
10921;BME280;5513;50.580;8.818;2023-10-13T12:42:30;98482.13;;;21.82;100.00
10921;BME280;5513;50.580;8.818;2023-10-13T12:45:43;98480.53;;;21.58;100.00
10921;BME280;5513;50.580;8.818;2023-10-13T12:48:47;98472.81;;;21.85;100.00
10921;BME280;5513;50.580;8.818;2023-10-13T12:51:50;98467.63;;;21.83;100.00
10921;BME280;5513;50.580;8.818;2023-10-13T12:54:37;98469.03;;;21.64;100.00
10921;BME280;5513;50.580;8.818;2023-10-13T12:57:24;98466.41;;;21.71;100.00
10921;BME280;5513;50.580;8.818;2023-10-13T13:00:12;98465.28;;;21.65;100.00
10921;BME280;5513;50.580;8.818;2023-10-13T13:03:11;98465.69;;;21.62;100.00
10921;BME280;5513;50.580;8.818;2023-10-13T13:05:59;98457.94;;;21.59;100.00
10921;BME280;5513;50.580;8.818;2023-10-13T13:08:55;98466.41;;;21.56;100.00
10921;BME280;5513;50.580;8.818;2023-10-13T13:11:42;98465.84;;;21.46;100.00
10921;BME280;5513;50.580;8.818;2023-10-13T13:14:28;98453.84;;;21.34;100.00
10921;BME280;5513;50.580;8.818;2023-10-13T13:17:15;98461.47;;;21.45;100.00
10921;BME280;5513;50.580;8.818;2023-10-13T13:20:03;98457.13;;;21.44;100.00
10921;BME280;5513;50.580;8.818;2023-10-13T13:22:56;98456.81;;;21.39;100.00
10921;BME280;5513;50.580;8.818;2023-10-13T13:25:50;98450.84;;;21.29;100.00
10921;BME280;5513;50.580;8.818;2023-10-13T13:28:37;98445.00;;;21.40;100.00
10921;BME280;5513;50.580;8.818;2023-10-13T13:31:23;98440.94;;;21.44;100.00
10921;BME280;5513;50.580;8.818;2023-10-13T13:34:15;98425.41;;;21.61;100.00
10921;BME280;5513;50.580;8.818;2023-10-13T13:37:02;98419.72;;;21.70;100.00
10921;BME280;5513;50.580;8.818;2023-10-13T13:39:49;98417.78;;;21.79;100.00
10921;BME280;5513;50.580;8.818;2023-10-13T13:42:40;98412.38;;;21.94;100.00
10921;BME280;5513;50.580;8.818;2023-10-13T13:45:28;98410.50;;;21.94;100.00
10921;BME280;5513;50.580;8.818;2023-10-13T13:48:17;98404.75;;;22.12;100.00
10921;BME280;5513;50.580;8.818;2023-10-13T13:51:05;98398.50;;;22.12;100.00
10921;BME280;5513;50.580;8.818;2023-10-13T13:53:59;98392.31;;;22.33;100.00
10921;BME280;5513;50.580;8.818;2023-10-13T13:56:50;98388.25;;;22.22;100.00
10921;BME280;5513;50.580;8.818;2023-10-13T13:59:38;98379.63;;;22.33;100.00
10921;BME280;5513;50.580;8.818;2023-10-13T14:02:25;98386.06;;;22.32;100.00
10921;BME280;5513;50.580;8.818;2023-10-13T14:05:15;98362.94;;;22.23;100.00
10921;BME280;5513;50.580;8.818;2023-10-13T14:08:02;98375.97;;;22.05;100.00
10921;BME280;5513;50.580;8.818;2023-10-13T14:10:57;98364.91;;;21.99;100.00
10921;BME280;5513;50.580;8.818;2023-10-13T14:14:28;98359.59;;;22.06;100.00
10921;BME280;5513;50.580;8.818;2023-10-13T14:17:16;98349.31;;;21.95;100.00
10921;BME280;5513;50.580;8.818;2023-10-13T14:20:03;98360.94;;;21.95;100.00
10921;BME280;5513;50.580;8.818;2023-10-13T14:23:00;98350.59;;;21.99;100.00
10921;BME280;5513;50.580;8.818;2023-10-13T14:25:53;98349.84;;;22.20;100.00
10921;BME280;5513;50.580;8.818;2023-10-13T14:28:40;98346.44;;;22.33;100.00
10921;BME280;5513;50.580;8.818;2023-10-13T14:31:37;98341.72;;;22.63;100.00
10921;BME280;5513;50.580;8.818;2023-10-13T14:34:26;98334.53;;;22.76;100.00
10921;BME280;5513;50.580;8.818;2023-10-13T14:37:13;98331.03;;;23.04;100.00
10921;BME280;5513;50.580;8.818;2023-10-13T14:40:07;98326.97;;;23.56;100.00
10921;BME280;5513;50.580;8.818;2023-10-13T14:42:58;98332.41;;;23.62;100.00
10921;BME280;5513;50.580;8.818;2023-10-13T14:45:45;98331.97;;;23.24;100.00
10921;BME280;5513;50.580;8.818;2023-10-13T14:48:32;98318.34;;;23.04;100.00
10921;BME280;5513;50.580;8.818;2023-10-13T14:51:21;98315.56;;;22.91;100.00
10921;BME280;5513;50.580;8.818;2023-10-13T14:54:08;98317.25;;;22.92;100.00
10921;BME280;5513;50.580;8.818;2023-10-13T14:56:54;98313.97;;;22.75;100.00
10921;BME280;5513;50.580;8.818;2023-10-13T14:59:41;98311.06;;;22.77;100.00
10921;BME280;5513;50.580;8.818;2023-10-13T15:02:30;98304.00;;;22.76;100.00
10921;BME280;5513;50.580;8.818;2023-10-13T15:05:17;98291.09;;;22.71;100.00
10921;BME280;5513;50.580;8.818;2023-10-13T15:08:06;98290.66;;;22.68;100.00
10921;BME280;5513;50.580;8.818;2023-10-13T15:10:53;98264.06;;;22.65;100.00
10921;BME280;5513;50.580;8.818;2023-10-13T15:13:40;98270.06;;;22.60;100.00
10921;BME280;5513;50.580;8.818;2023-10-13T15:16:27;98272.44;;;22.48;100.00
10921;BME280;5513;50.580;8.818;2023-10-13T15:19:14;98262.78;;;22.61;100.00